sensor_id;sensor_type;location;lat;lon;timestamp;pressure;altitude;pressure_sealevel;temperature;humidity
46638;BME280;32365;46.938;7.390;2023-03-05T00:01:13;95396.50;;;0.02;79.93
46638;BME280;32365;46.938;7.390;2023-03-05T00:03:40;95391.41;;;-0.06;80.88
46638;BME280;32365;46.938;7.390;2023-03-05T00:06:07;95388.06;;;0.02;80.62
46638;BME280;32365;46.938;7.390;2023-03-05T00:08:34;95389.03;;;-0.16;80.38
46638;BME280;32365;46.938;7.390;2023-03-05T00:11:03;95386.34;;;-0.06;80.76
46638;BME280;32365;46.938;7.390;2023-03-05T00:13:30;95384.75;;;-0.07;80.77
46638;BME280;32365;46.938;7.390;2023-03-05T00:15:56;95385.53;;;-0.07;81.05
46638;BME280;32365;46.938;7.390;2023-03-05T00:18:25;95388.22;;;-0.08;80.94
46638;BME280;32365;46.938;7.390;2023-03-05T00:20:51;95387.13;;;-0.14;81.03
46638;BME280;32365;46.938;7.390;2023-03-05T00:23:17;95390.94;;;-0.26;81.84
46638;BME280;32365;46.938;7.390;2023-03-05T00:25:44;95380.13;;;-0.28;81.81
46638;BME280;32365;46.938;7.390;2023-03-05T00:28:11;95387.28;;;-0.16;82.19
46638;BME280;32365;46.938;7.390;2023-03-05T00:30:38;95385.72;;;-0.17;81.69
46638;BME280;32365;46.938;7.390;2023-03-05T00:33:05;95381.09;;;-0.38;81.70
46638;BME280;32365;46.938;7.390;2023-03-05T00:35:39;95378.72;;;-0.39;82.67
46638;BME280;32365;46.938;7.390;2023-03-05T00:38:05;95384.41;;;-0.45;83.16
46638;BME280;32365;46.938;7.390;2023-03-05T00:40:34;95383.31;;;-0.35;83.19
46638;BME280;32365;46.938;7.390;2023-03-05T00:43:01;95379.19;;;-0.36;82.97
46638;BME280;32365;46.938;7.390;2023-03-05T00:45:27;95386.03;;;-0.36;82.93
46638;BME280;32365;46.938;7.390;2023-03-05T00:47:54;95377.13;;;-0.40;82.97
46638;BME280;32365;46.938;7.390;2023-03-05T00:50:21;95375.34;;;-0.40;83.10
46638;BME280;32365;46.938;7.390;2023-03-05T00:52:48;95373.78;;;-0.41;83.55
46638;BME280;32365;46.938;7.390;2023-03-05T00:55:15;95376.31;;;-0.49;83.47
46638;BME280;32365;46.938;7.390;2023-03-05T00:57:41;95375.53;;;-0.50;83.40
46638;BME280;32365;46.938;7.390;2023-03-05T01:00:09;95375.38;;;-0.48;83.89
46638;BME280;32365;46.938;7.390;2023-03-05T01:02:35;95369.16;;;-0.54;83.43
46638;BME280;32365;46.938;7.390;2023-03-05T01:05:02;95376.16;;;-0.48;83.68
46638;BME280;32365;46.938;7.390;2023-03-05T01:07:29;95369.00;;;-0.60;83.49
46638;BME280;32365;46.938;7.390;2023-03-05T01:09:57;95365.97;;;-0.56;85.14
46638;BME280;32365;46.938;7.390;2023-03-05T01:12:23;95356.63;;;-0.55;85.13
46638;BME280;32365;46.938;7.390;2023-03-05T01:14:50;95363.94;;;-0.44;84.63
46638;BME280;32365;46.938;7.390;2023-03-05T01:17:16;95360.28;;;-0.50;83.92
46638;BME280;32365;46.938;7.390;2023-03-05T01:19:43;95355.97;;;-0.57;85.14
46638;BME280;32365;46.938;7.390;2023-03-05T01:22:09;95356.75;;;-0.65;84.69
46638;BME280;32365;46.938;7.390;2023-03-05T01:24:36;95360.09;;;-0.65;85.38
46638;BME280;32365;46.938;7.390;2023-03-05T01:27:04;95349.44;;;-0.68;85.37
46638;BME280;32365;46.938;7.390;2023-03-05T01:29:31;95339.44;;;-0.62;85.60
46638;BME280;32365;46.938;7.390;2023-03-05T01:31:57;95343.09;;;-0.56;85.35
46638;BME280;32365;46.938;7.390;2023-03-05T01:34:23;95343.09;;;-0.56;85.24
46638;BME280;32365;46.938;7.390;2023-03-05T01:36:50;95351.03;;;-0.59;85.02
46638;BME280;32365;46.938;7.390;2023-03-05T01:39:16;95340.88;;;-0.67;85.21
46638;BME280;32365;46.938;7.390;2023-03-05T01:41:43;95338.16;;;-0.74;85.92
46638;BME280;32365;46.938;7.390;2023-03-05T01:44:20;95337.22;;;-0.73;85.60
46638;BME280;32365;46.938;7.390;2023-03-05T01:46:47;95331.00;;;-0.70;85.81
46638;BME280;32365;46.938;7.390;2023-03-05T01:49:18;95327.50;;;-0.78;85.88
46638;BME280;32365;46.938;7.390;2023-03-05T01:52:02;95328.94;;;-0.75;85.91
46638;BME280;32365;46.938;7.390;2023-03-05T01:54:32;95329.41;;;-0.71;85.68
46638;BME280;32365;46.938;7.390;2023-03-05T01:57:04;95320.84;;;-0.70;85.80
46638;BME280;32365;46.938;7.390;2023-03-05T01:59:35;95321.47;;;-0.85;86.12
46638;BME280;32365;46.938;7.390;2023-03-05T02:02:02;95321.44;;;-0.93;86.78
46638;BME280;32365;46.938;7.390;2023-03-05T02:04:35;95318.59;;;-0.90;86.95
46638;BME280;32365;46.938;7.390;2023-03-05T02:07:03;95318.44;;;-0.88;86.94
46638;BME280;32365;46.938;7.390;2023-03-05T02:09:30;95314.94;;;-0.96;86.84
46638;BME280;32365;46.938;7.390;2023-03-05T02:11:56;95315.28;;;-0.90;86.70
46638;BME280;32365;46.938;7.390;2023-03-05T02:14:24;95314.94;;;-0.96;86.40
46638;BME280;32365;46.938;7.390;2023-03-05T02:16:52;95315.09;;;-1.05;87.45
46638;BME280;32365;46.938;7.390;2023-03-05T02:19:18;95322.41;;;-1.02;87.13
46638;BME280;32365;46.938;7.390;2023-03-05T02:21:48;95314.78;;;-1.11;87.51
46638;BME280;32365;46.938;7.390;2023-03-05T02:24:17;95313.81;;;-1.01;88.02
46638;BME280;32365;46.938;7.390;2023-03-05T02:26:45;95312.41;;;-1.04;87.13
46638;BME280;32365;46.938;7.390;2023-03-05T02:29:16;95307.63;;;-1.07;87.55
46638;BME280;32365;46.938;7.390;2023-03-05T02:31:44;95306.50;;;-1.04;87.91
46638;BME280;32365;46.938;7.390;2023-03-05T02:34:10;95305.38;;;-1.10;87.85
46638;BME280;32365;46.938;7.390;2023-03-05T02:36:37;95311.13;;;-1.00;87.68
46638;BME280;32365;46.938;7.390;2023-03-05T02:39:06;95301.13;;;-1.10;87.39
46638;BME280;32365;46.938;7.390;2023-03-05T02:41:33;95303.16;;;-1.13;87.80
46638;BME280;32365;46.938;7.390;2023-03-05T02:44:00;95303.50;;;-1.16;88.11
46638;BME280;32365;46.938;7.390;2023-03-05T02:46:27;95296.34;;;-1.21;87.33
46638;BME280;32365;46.938;7.390;2023-03-05T02:48:54;95293.94;;;-1.22;88.12
46638;BME280;32365;46.938;7.390;2023-03-05T02:51:20;95289.66;;;-1.22;87.99
46638;BME280;32365;46.938;7.390;2023-03-05T02:53:47;95280.75;;;-1.26;88.08
46638;BME280;32365;46.938;7.390;2023-03-05T02:56:14;95295.63;;;-1.40;87.97
46638;BME280;32365;46.938;7.390;2023-03-05T02:58:41;95289.78;;;-1.40;88.36
46638;BME280;32365;46.938;7.390;2023-03-05T03:01:08;95286.91;;;-1.37;89.14
46638;BME280;32365;46.938;7.390;2023-03-05T03:03:35;95281.03;;;-1.46;88.56
46638;BME280;32365;46.938;7.390;2023-03-05T03:06:03;95280.88;;;-1.52;88.78
46638;BME280;32365;46.938;7.390;2023-03-05T03:08:29;95285.13;;;-1.53;89.65
46638;BME280;32365;46.938;7.390;2023-03-05T03:11:03;95277.97;;;-1.58;89.14
46638;BME280;32365;46.938;7.390;2023-03-05T03:13:31;95279.88;;;-1.60;89.83
46638;BME280;32365;46.938;7.390;2023-03-05T03:16:01;95282.41;;;-1.60;89.83
46638;BME280;32365;46.938;7.390;2023-03-05T03:18:27;95272.41;;;-1.61;89.84
46638;BME280;32365;46.938;7.390;2023-03-05T03:20:54;95280.50;;;-1.58;89.82
46638;BME280;32365;46.938;7.390;2023-03-05T03:23:21;95283.22;;;-1.59;89.59
46638;BME280;32365;46.938;7.390;2023-03-05T03:25:47;95275.44;;;-1.58;90.28
46638;BME280;32365;46.938;7.390;2023-03-05T03:28:14;95281.63;;;-1.60;90.37
46638;BME280;32365;46.938;7.390;2023-03-05T03:30:41;95286.72;;;-1.52;89.89
46638;BME280;32365;46.938;7.390;2023-03-05T03:33:08;95288.28;;;-1.59;88.91
46638;BME280;32365;46.938;7.390;2023-03-05T03:35:34;95287.47;;;-1.60;90.24
46638;BME280;32365;46.938;7.390;2023-03-05T03:38:01;95287.66;;;-1.61;90.16
46638;BME280;32365;46.938;7.390;2023-03-05T03:40:27;95286.97;;;-1.72;90.70
46638;BME280;32365;46.938;7.390;2023-03-05T03:42:54;95289.72;;;-1.57;91.18
46638;BME280;32365;46.938;7.390;2023-03-05T03:45:21;95288.94;;;-1.57;90.08
46638;BME280;32365;46.938;7.390;2023-03-05T03:47:49;95289.66;;;-1.73;90.81
46638;BME280;32365;46.938;7.390;2023-03-05T03:50:16;95299.50;;;-1.70;90.70
46638;BME280;32365;46.938;7.390;2023-03-05T03:52:42;95287.94;;;-1.73;91.01
46638;BME280;32365;46.938;7.390;2023-03-05T03:55:09;95287.81;;;-1.63;91.16
46638;BME280;32365;46.938;7.390;2023-03-05T03:57:36;95278.75;;;-1.65;91.07
46638;BME280;32365;46.938;7.390;2023-03-05T04:00:03;95286.69;;;-1.68;91.42
46638;BME280;32365;46.938;7.390;2023-03-05T04:02:31;95278.75;;;-1.65;91.64
46638;BME280;32365;46.938;7.390;2023-03-05T04:04:59;95283.81;;;-1.65;91.73
46638;BME280;32365;46.938;7.390;2023-03-05T04:07:25;95278.56;;;-1.72;91.40
46638;BME280;32365;46.938;7.390;2023-03-05T04:09:52;95278.75;;;-1.65;91.71
46638;BME280;32365;46.938;7.390;2023-03-05T04:12:18;95268.75;;;-1.67;91.95
46638;BME280;32365;46.938;7.390;2023-03-05T04:14:45;95275.41;;;-1.66;91.24
46638;BME280;32365;46.938;7.390;2023-03-05T04:17:12;95284.25;;;-1.78;91.03
46638;BME280;32365;46.938;7.390;2023-03-05T04:19:39;95274.09;;;-1.87;91.19
46638;BME280;32365;46.938;7.390;2023-03-05T04:22:10;95271.19;;;-1.92;91.02
46638;BME280;32365;46.938;7.390;2023-03-05T04:24:36;95270.25;;;-1.91;91.32
46638;BME280;32365;46.938;7.390;2023-03-05T04:27:03;95271.19;;;-1.92;91.60
46638;BME280;32365;46.938;7.390;2023-03-05T04:29:30;95266.09;;;-2.00;91.87
46638;BME280;32365;46.938;7.390;2023-03-05T04:31:56;95267.06;;;-1.93;92.10
46638;BME280;32365;46.938;7.390;2023-03-05T04:34:23;95268.66;;;-1.92;92.57
46638;BME280;32365;46.938;7.390;2023-03-05T04:36:49;95270.06;;;-1.97;91.58
46638;BME280;32365;46.938;7.390;2023-03-05T04:39:18;95259.34;;;-1.83;91.63
46638;BME280;32365;46.938;7.390;2023-03-05T04:41:45;95258.31;;;-1.98;91.54
46638;BME280;32365;46.938;7.390;2023-03-05T04:44:11;95259.91;;;-1.97;91.43
46638;BME280;32365;46.938;7.390;2023-03-05T04:46:38;95259.72;;;-2.04;91.23
46638;BME280;32365;46.938;7.390;2023-03-05T04:49:04;95258.75;;;-2.11;91.23
46638;BME280;32365;46.938;7.390;2023-03-05T04:51:31;95254.72;;;-2.22;91.54
46638;BME280;32365;46.938;7.390;2023-03-05T04:53:57;95253.16;;;-2.15;92.26
46638;BME280;32365;46.938;7.390;2023-03-05T04:56:25;95255.69;;;-2.15;92.32
46638;BME280;32365;46.938;7.390;2023-03-05T04:58:52;95251.69;;;-2.26;91.84
46638;BME280;32365;46.938;7.390;2023-03-05T05:01:18;95244.63;;;-2.40;92.67
46638;BME280;32365;46.938;7.390;2023-03-05T05:03:45;95245.75;;;-2.43;93.14
46638;BME280;32365;46.938;7.390;2023-03-05T05:06:11;95243.91;;;-2.33;93.78
46638;BME280;32365;46.938;7.390;2023-03-05T05:08:38;95237.22;;;-2.34;93.40
46638;BME280;32365;46.938;7.390;2023-03-05T05:11:05;95236.84;;;-2.47;93.32
46638;BME280;32365;46.938;7.390;2023-03-05T05:13:34;95232.34;;;-2.27;93.40
46638;BME280;32365;46.938;7.390;2023-03-05T05:16:00;95234.72;;;-2.25;92.48
46638;BME280;32365;46.938;7.390;2023-03-05T05:18:27;95228.13;;;-2.44;92.98
46638;BME280;32365;46.938;7.390;2023-03-05T05:20:53;95233.41;;;-2.38;92.93
46638;BME280;32365;46.938;7.390;2023-03-05T05:23:20;95229.72;;;-2.43;92.95
46638;BME280;32365;46.938;7.390;2023-03-05T05:25:54;95232.81;;;-2.32;92.39
46638;BME280;32365;46.938;7.390;2023-03-05T05:28:21;95233.72;;;-2.41;92.75
46638;BME280;32365;46.938;7.390;2023-03-05T05:30:49;95241.31;;;-2.41;93.19
46638;BME280;32365;46.938;7.390;2023-03-05T05:33:15;95234.66;;;-2.42;92.93
46638;BME280;32365;46.938;7.390;2023-03-05T05:35:42;95236.19;;;-2.49;93.18
46638;BME280;32365;46.938;7.390;2023-03-05T05:38:08;95232.53;;;-2.47;93.70
46638;BME280;32365;46.938;7.390;2023-03-05T05:40:35;95232.91;;;-2.41;94.25
46638;BME280;32365;46.938;7.390;2023-03-05T05:43:01;95229.84;;;-2.53;93.62
46638;BME280;32365;46.938;7.390;2023-03-05T05:45:28;95236.47;;;-2.52;94.76
46638;BME280;32365;46.938;7.390;2023-03-05T05:47:56;95239.22;;;-2.45;94.40
46638;BME280;32365;46.938;7.390;2023-03-05T05:50:22;95239.53;;;-2.49;94.49
46638;BME280;32365;46.938;7.390;2023-03-05T05:52:49;95234.59;;;-2.50;94.46
46638;BME280;32365;46.938;7.390;2023-03-05T05:55:16;95234.56;;;-2.58;94.03
46638;BME280;32365;46.938;7.390;2023-03-05T05:57:43;95231.84;;;-2.57;93.89
46638;BME280;32365;46.938;7.390;2023-03-05T06:00:12;95229.94;;;-2.63;93.40
46638;BME280;32365;46.938;7.390;2023-03-05T06:02:39;95237.63;;;-2.73;92.92
46638;BME280;32365;46.938;7.390;2023-03-05T06:05:11;95238.56;;;-2.74;92.76
46638;BME280;32365;46.938;7.390;2023-03-05T06:07:39;95235.19;;;-2.83;92.93
46638;BME280;32365;46.938;7.390;2023-03-05T06:10:07;95227.66;;;-2.74;93.21
46638;BME280;32365;46.938;7.390;2023-03-05T06:12:34;95235.69;;;-2.79;93.08
46638;BME280;32365;46.938;7.390;2023-03-05T06:15:00;95238.88;;;-2.77;92.97
46638;BME280;32365;46.938;7.390;2023-03-05T06:17:27;95235.59;;;-2.69;92.14
46638;BME280;32365;46.938;7.390;2023-03-05T06:19:53;95240.16;;;-2.73;92.42
46638;BME280;32365;46.938;7.390;2023-03-05T06:22:21;95246.97;;;-2.73;92.46
46638;BME280;32365;46.938;7.390;2023-03-05T06:24:48;95243.34;;;-2.71;92.31
46638;BME280;32365;46.938;7.390;2023-03-05T06:27:14;95250.03;;;-2.61;91.48
46638;BME280;32365;46.938;7.390;2023-03-05T06:29:41;95249.56;;;-2.65;91.30
46638;BME280;32365;46.938;7.390;2023-03-05T06:32:07;95240.06;;;-2.63;91.37
46638;BME280;32365;46.938;7.390;2023-03-05T06:34:34;95243.03;;;-2.41;90.27
46638;BME280;32365;46.938;7.390;2023-03-05T06:37:01;95243.84;;;-2.41;90.02
46638;BME280;32365;46.938;7.390;2023-03-05T06:39:28;95245.03;;;-2.27;88.93
46638;BME280;32365;46.938;7.390;2023-03-05T06:41:55;95247.91;;;-2.22;88.13
46638;BME280;32365;46.938;7.390;2023-03-05T06:44:22;95245.56;;;-2.15;88.11
46638;BME280;32365;46.938;7.390;2023-03-05T06:46:48;95242.91;;;-2.05;88.07
46638;BME280;32365;46.938;7.390;2023-03-05T06:49:15;95236.34;;;-2.16;88.01
46638;BME280;32365;46.938;7.390;2023-03-05T06:51:41;95230.19;;;-2.13;87.90
46638;BME280;32365;46.938;7.390;2023-03-05T06:54:11;95220.56;;;-2.02;88.50
46638;BME280;32365;46.938;7.390;2023-03-05T06:56:41;95220.25;;;-2.07;88.89
46638;BME280;32365;46.938;7.390;2023-03-05T06:59:07;95214.22;;;-2.06;88.75
46638;BME280;32365;46.938;7.390;2023-03-05T07:01:35;95218.84;;;-2.01;88.51
46638;BME280;32365;46.938;7.390;2023-03-05T07:04:02;95217.44;;;-1.95;88.70
46638;BME280;32365;46.938;7.390;2023-03-05T07:06:31;95207.38;;;-1.62;87.82
46638;BME280;32365;46.938;7.390;2023-03-05T07:08:58;95207.41;;;-1.37;87.11
46638;BME280;32365;46.938;7.390;2023-03-05T07:11:26;95209.81;;;-1.28;86.91
46638;BME280;32365;46.938;7.390;2023-03-05T07:13:54;95203.56;;;-1.42;87.07
46638;BME280;32365;46.938;7.390;2023-03-05T07:16:22;95207.72;;;-1.41;86.72
46638;BME280;32365;46.938;7.390;2023-03-05T07:18:49;95202.97;;;-0.86;85.46
46638;BME280;32365;46.938;7.390;2023-03-05T07:21:19;95206.31;;;-0.21;81.49
46638;BME280;32365;46.938;7.390;2023-03-05T07:23:46;95204.59;;;0.43;77.23
46638;BME280;32365;46.938;7.390;2023-03-05T07:26:12;95204.59;;;0.43;77.46
46638;BME280;32365;46.938;7.390;2023-03-05T07:28:40;95207.22;;;0.81;76.79
46638;BME280;32365;46.938;7.390;2023-03-05T07:31:12;95208.13;;;0.88;75.26
46638;BME280;32365;46.938;7.390;2023-03-05T07:33:39;95209.75;;;1.04;74.81
46638;BME280;32365;46.938;7.390;2023-03-05T07:36:06;95198.38;;;0.69;77.69
46638;BME280;32365;46.938;7.390;2023-03-05T07:38:33;95202.97;;;0.97;74.76
46638;BME280;32365;46.938;7.390;2023-03-05T07:41:01;95205.69;;;1.93;70.13
46638;BME280;32365;46.938;7.390;2023-03-05T07:43:27;95199.16;;;2.79;69.47
46638;BME280;32365;46.938;7.390;2023-03-05T07:45:54;95200.78;;;3.65;62.14
46638;BME280;32365;46.938;7.390;2023-03-05T07:48:22;95204.84;;;3.88;62.83
46638;BME280;32365;46.938;7.390;2023-03-05T07:50:49;95206.63;;;4.36;61.22
46638;BME280;32365;46.938;7.390;2023-03-05T07:53:16;95206.72;;;4.08;61.84
46638;BME280;32365;46.938;7.390;2023-03-05T07:55:42;95191.69;;;4.67;58.78
46638;BME280;32365;46.938;7.390;2023-03-05T07:58:10;95189.97;;;5.01;57.81
46638;BME280;32365;46.938;7.390;2023-03-05T08:00:36;95190.13;;;4.66;57.67
46638;BME280;32365;46.938;7.390;2023-03-05T08:03:03;95192.72;;;4.99;60.17
46638;BME280;32365;46.938;7.390;2023-03-05T08:05:31;95196.69;;;4.13;61.96
46638;BME280;32365;46.938;7.390;2023-03-05T08:07:58;95194.09;;;4.75;59.59
46638;BME280;32365;46.938;7.390;2023-03-05T08:10:24;95198.44;;;5.42;59.33
46638;BME280;32365;46.938;7.390;2023-03-05T08:12:51;95192.31;;;4.82;58.25
46638;BME280;32365;46.938;7.390;2023-03-05T08:15:17;95195.31;;;5.06;60.89
46638;BME280;32365;46.938;7.390;2023-03-05T08:17:44;95195.72;;;4.27;61.18
46638;BME280;32365;46.938;7.390;2023-03-05T08:20:11;95194.31;;;5.14;58.34
46638;BME280;32365;46.938;7.390;2023-03-05T08:22:39;95191.47;;;5.89;55.71
46638;BME280;32365;46.938;7.390;2023-03-05T08:25:07;95184.84;;;6.59;54.59
46638;BME280;32365;46.938;7.390;2023-03-05T08:27:37;95184.63;;;6.92;52.46
46638;BME280;32365;46.938;7.390;2023-03-05T08:30:05;95175.34;;;6.59;53.98
46638;BME280;32365;46.938;7.390;2023-03-05T08:32:32;95180.53;;;7.10;51.77
46638;BME280;32365;46.938;7.390;2023-03-05T08:34:58;95179.00;;;8.09;48.40
46638;BME280;32365;46.938;7.390;2023-03-05T08:37:27;95179.38;;;5.90;53.29
46638;BME280;32365;46.938;7.390;2023-03-05T08:39:55;95175.75;;;5.32;59.17
46638;BME280;32365;46.938;7.390;2023-03-05T08:42:21;95178.59;;;6.80;52.69
46638;BME280;32365;46.938;7.390;2023-03-05T08:44:48;95173.25;;;6.75;53.65
46638;BME280;32365;46.938;7.390;2023-03-05T08:47:15;95173.88;;;7.72;49.69
46638;BME280;32365;46.938;7.390;2023-03-05T08:49:42;95176.38;;;6.52;52.86
46638;BME280;32365;46.938;7.390;2023-03-05T08:52:09;95170.53;;;8.69;48.08
46638;BME280;32365;46.938;7.390;2023-03-05T08:54:36;95169.06;;;9.28;46.27
46638;BME280;32365;46.938;7.390;2023-03-05T08:57:04;95163.41;;;8.95;47.20
46638;BME280;32365;46.938;7.390;2023-03-05T08:59:32;95168.47;;;7.11;52.49
46638;BME280;32365;46.938;7.390;2023-03-05T09:01:59;95163.72;;;8.26;48.76
46638;BME280;32365;46.938;7.390;2023-03-05T09:04:26;95167.25;;;8.62;48.78
46638;BME280;32365;46.938;7.390;2023-03-05T09:06:52;95165.53;;;9.81;46.50
46638;BME280;32365;46.938;7.390;2023-03-05T09:09:19;95164.63;;;9.76;45.78
46638;BME280;32365;46.938;7.390;2023-03-05T09:11:47;95165.59;;;10.10;44.29
46638;BME280;32365;46.938;7.390;2023-03-05T09:14:14;95160.72;;;9.02;46.33
46638;BME280;32365;46.938;7.390;2023-03-05T09:16:41;95156.84;;;8.20;49.55
46638;BME280;32365;46.938;7.390;2023-03-05T09:19:07;95157.81;;;7.88;51.42
46638;BME280;32365;46.938;7.390;2023-03-05T09:21:36;95156.06;;;8.19;48.51
46638;BME280;32365;46.938;7.390;2023-03-05T09:24:03;95148.50;;;9.21;47.04
46638;BME280;32365;46.938;7.390;2023-03-05T09:26:29;95150.59;;;8.76;49.65
46638;BME280;32365;46.938;7.390;2023-03-05T09:28:56;95143.81;;;7.84;50.77
46638;BME280;32365;46.938;7.390;2023-03-05T09:31:24;95137.06;;;10.63;43.92
46638;BME280;32365;46.938;7.390;2023-03-05T09:33:50;95139.19;;;11.34;41.75
46638;BME280;32365;46.938;7.390;2023-03-05T09:36:19;95134.19;;;11.50;41.00
46638;BME280;32365;46.938;7.390;2023-03-05T09:38:46;95136.16;;;11.82;41.74
46638;BME280;32365;46.938;7.390;2023-03-05T09:41:17;95135.03;;;12.17;40.96
46638;BME280;32365;46.938;7.390;2023-03-05T09:43:54;95130.69;;;12.50;39.86
46638;BME280;32365;46.938;7.390;2023-03-05T09:46:30;95121.09;;;12.83;37.95
46638;BME280;32365;46.938;7.390;2023-03-05T09:49:06;95120.44;;;12.11;38.60
46638;BME280;32365;46.938;7.390;2023-03-05T09:51:35;95119.28;;;12.24;38.71
46638;BME280;32365;46.938;7.390;2023-03-05T09:54:05;95119.25;;;10.67;43.05
46638;BME280;32365;46.938;7.390;2023-03-05T09:56:38;95123.00;;;9.13;47.31
46638;BME280;32365;46.938;7.390;2023-03-05T09:59:16;95114.94;;;9.97;47.10
46638;BME280;32365;46.938;7.390;2023-03-05T10:01:45;95111.63;;;11.11;44.62
46638;BME280;32365;46.938;7.390;2023-03-05T10:04:16;95107.06;;;12.24;40.89
46638;BME280;32365;46.938;7.390;2023-03-05T10:06:48;95101.53;;;10.75;44.21
46638;BME280;32365;46.938;7.390;2023-03-05T10:09:21;95100.88;;;10.51;45.73
46638;BME280;32365;46.938;7.390;2023-03-05T10:11:54;95098.47;;;13.59;39.14
46638;BME280;32365;46.938;7.390;2023-03-05T10:14:25;95095.94;;;13.69;38.07
46638;BME280;32365;46.938;7.390;2023-03-05T10:17:05;95096.72;;;13.27;38.00
46638;BME280;32365;46.938;7.390;2023-03-05T10:19:53;95093.84;;;10.81;42.51
46638;BME280;32365;46.938;7.390;2023-03-05T10:22:27;95091.13;;;9.31;46.61
46638;BME280;32365;46.938;7.390;2023-03-05T10:25:05;95091.56;;;9.80;45.81
46638;BME280;32365;46.938;7.390;2023-03-05T10:27:46;95098.41;;;7.27;52.90
46638;BME280;32365;46.938;7.390;2023-03-05T10:30:32;95096.00;;;8.61;49.04
46638;BME280;32365;46.938;7.390;2023-03-05T10:33:13;95094.25;;;9.45;47.17
46638;BME280;32365;46.938;7.390;2023-03-05T10:36:08;95089.56;;;9.06;48.62
46638;BME280;32365;46.938;7.390;2023-03-05T10:38:47;95091.94;;;8.11;51.90
46638;BME280;32365;46.938;7.390;2023-03-05T10:41:23;95086.19;;;8.09;51.66
46638;BME280;32365;46.938;7.390;2023-03-05T10:43:56;95086.22;;;7.16;54.93
46638;BME280;32365;46.938;7.390;2023-03-05T10:46:30;95086.09;;;7.29;54.45
46638;BME280;32365;46.938;7.390;2023-03-05T10:49:03;95079.44;;;6.52;56.21
46638;BME280;32365;46.938;7.390;2023-03-05T10:51:33;95081.81;;;6.79;55.85
46638;BME280;32365;46.938;7.390;2023-03-05T10:54:04;95075.44;;;6.56;55.17
46638;BME280;32365;46.938;7.390;2023-03-05T10:56:35;95075.53;;;6.68;57.34
46638;BME280;32365;46.938;7.390;2023-03-05T10:59:02;95067.81;;;7.37;53.48
46638;BME280;32365;46.938;7.390;2023-03-05T11:01:29;95061.72;;;7.99;52.82
46638;BME280;32365;46.938;7.390;2023-03-05T11:03:57;95061.44;;;7.89;52.89
46638;BME280;32365;46.938;7.390;2023-03-05T11:06:35;95060.44;;;7.90;53.71
46638;BME280;32365;46.938;7.390;2023-03-05T11:09:21;95058.75;;;7.65;52.66
46638;BME280;32365;46.938;7.390;2023-03-05T11:12:04;95061.22;;;7.60;55.18
46638;BME280;32365;46.938;7.390;2023-03-05T11:14:34;95060.66;;;8.61;51.05
46638;BME280;32365;46.938;7.390;2023-03-05T11:17:27;95054.50;;;7.90;54.62
46638;BME280;32365;46.938;7.390;2023-03-05T11:19:55;95058.28;;;7.57;55.16
46638;BME280;32365;46.938;7.390;2023-03-05T11:22:24;95050.53;;;7.75;53.20
46638;BME280;32365;46.938;7.390;2023-03-05T11:25:12;95043.75;;;7.44;55.95
46638;BME280;32365;46.938;7.390;2023-03-05T11:27:45;95041.06;;;8.30;52.75
46638;BME280;32365;46.938;7.390;2023-03-05T11:30:20;95035.81;;;7.64;53.99
46638;BME280;32365;46.938;7.390;2023-03-05T11:32:47;95029.31;;;7.92;53.55
46638;BME280;32365;46.938;7.390;2023-03-05T11:35:32;95029.59;;;8.92;50.31
46638;BME280;32365;46.938;7.390;2023-03-05T11:38:02;95016.91;;;9.14;50.03
46638;BME280;32365;46.938;7.390;2023-03-05T11:40:29;95013.31;;;9.15;49.42
46638;BME280;32365;46.938;7.390;2023-03-05T11:42:58;95016.50;;;8.27;51.18
46638;BME280;32365;46.938;7.390;2023-03-05T11:45:28;95011.28;;;9.17;48.86
46638;BME280;32365;46.938;7.390;2023-03-05T11:47:59;95002.78;;;8.15;50.20
46638;BME280;32365;46.938;7.390;2023-03-05T11:50:29;95004.81;;;9.44;48.37
46638;BME280;32365;46.938;7.390;2023-03-05T11:52:58;94994.63;;;9.95;46.95
46638;BME280;32365;46.938;7.390;2023-03-05T11:55:29;94997.56;;;10.15;45.88
46638;BME280;32365;46.938;7.390;2023-03-05T11:58:08;94993.31;;;10.26;46.06
46638;BME280;32365;46.938;7.390;2023-03-05T12:00:42;94984.06;;;9.96;47.21
46638;BME280;32365;46.938;7.390;2023-03-05T12:03:11;94978.34;;;10.80;44.79
46638;BME280;32365;46.938;7.390;2023-03-05T12:05:43;94976.47;;;11.14;45.19
46638;BME280;32365;46.938;7.390;2023-03-05T12:08:14;94977.19;;;10.19;48.35
46638;BME280;32365;46.938;7.390;2023-03-05T12:10:43;94975.13;;;9.46;49.95
46638;BME280;32365;46.938;7.390;2023-03-05T12:13:15;94968.69;;;9.32;47.83
46638;BME280;32365;46.938;7.390;2023-03-05T12:15:59;94965.16;;;7.72;52.84
46638;BME280;32365;46.938;7.390;2023-03-05T12:18:36;94967.75;;;9.38;49.76
46638;BME280;32365;46.938;7.390;2023-03-05T12:21:06;94959.44;;;9.36;50.14
46638;BME280;32365;46.938;7.390;2023-03-05T12:23:50;94958.63;;;11.40;44.70
46638;BME280;32365;46.938;7.390;2023-03-05T12:26:53;94948.88;;;12.88;41.34
46638;BME280;32365;46.938;7.390;2023-03-05T12:29:29;94943.72;;;11.08;43.92
46638;BME280;32365;46.938;7.390;2023-03-05T12:31:57;94936.56;;;12.62;42.10
46638;BME280;32365;46.938;7.390;2023-03-05T12:34:46;94931.69;;;15.05;37.30
46638;BME280;32365;46.938;7.390;2023-03-05T12:37:48;94931.09;;;11.89;41.67
46638;BME280;32365;46.938;7.390;2023-03-05T12:40:20;94920.38;;;12.50;39.58
46638;BME280;32365;46.938;7.390;2023-03-05T12:42:51;94921.88;;;12.84;40.52
46638;BME280;32365;46.938;7.390;2023-03-05T12:45:32;94915.16;;;13.98;38.33
46638;BME280;32365;46.938;7.390;2023-03-05T12:48:40;94905.78;;;14.18;38.24
46638;BME280;32365;46.938;7.390;2023-03-05T12:51:27;94910.72;;;12.93;40.05
46638;BME280;32365;46.938;7.390;2023-03-05T12:53:55;94905.34;;;12.57;40.94
46638;BME280;32365;46.938;7.390;2023-03-05T12:56:25;94901.44;;;13.08;39.99
46638;BME280;32365;46.938;7.390;2023-03-05T12:58:57;94892.41;;;13.36;39.31
46638;BME280;32365;46.938;7.390;2023-03-05T13:01:33;94897.50;;;15.07;34.67
46638;BME280;32365;46.938;7.390;2023-03-05T13:04:03;94890.75;;;12.94;38.05
46638;BME280;32365;46.938;7.390;2023-03-05T13:06:35;94888.69;;;11.73;41.70
46638;BME280;32365;46.938;7.390;2023-03-05T13:09:05;94888.97;;;12.46;39.79
46638;BME280;32365;46.938;7.390;2023-03-05T13:11:35;94894.34;;;13.98;37.01
46638;BME280;32365;46.938;7.390;2023-03-05T13:14:31;94891.63;;;14.65;37.01